sensor_id;sensor_type;location;lat;lon;timestamp;P1;durP1;ratioP1;P2;durP2;ratioP2
32333;SDS011;18810;53.040;8.850;2023-04-15T00:00:48;16.92;;;11.52;;
32333;SDS011;18810;53.040;8.850;2023-04-15T00:03:16;16.58;;;11.65;;
32333;SDS011;18810;53.040;8.850;2023-04-15T00:05:42;17.83;;;11.68;;
32333;SDS011;18810;53.040;8.850;2023-04-15T00:08:08;18.83;;;11.55;;
32333;SDS011;18810;53.040;8.850;2023-04-15T00:10:34;18.83;;;11.40;;
32333;SDS011;18810;53.040;8.850;2023-04-15T00:13:00;14.88;;;11.35;;
32333;SDS011;18810;53.040;8.850;2023-04-15T00:15:26;16.02;;;11.35;;
32333;SDS011;18810;53.040;8.850;2023-04-15T00:17:52;17.23;;;12.45;;
32333;SDS011;18810;53.040;8.850;2023-04-15T00:20:18;16.40;;;11.70;;
32333;SDS011;18810;53.040;8.850;2023-04-15T00:22:44;18.42;;;11.80;;
32333;SDS011;18810;53.040;8.850;2023-04-15T00:25:10;15.82;;;12.15;;
32333;SDS011;18810;53.040;8.850;2023-04-15T00:27:36;17.60;;;12.10;;
32333;SDS011;18810;53.040;8.850;2023-04-15T00:30:02;18.42;;;12.35;;
32333;SDS011;18810;53.040;8.850;2023-04-15T00:32:29;16.65;;;12.00;;
32333;SDS011;18810;53.040;8.850;2023-04-15T00:34:55;17.48;;;12.07;;
32333;SDS011;18810;53.040;8.850;2023-04-15T00:37:21;19.25;;;12.18;;
32333;SDS011;18810;53.040;8.850;2023-04-15T00:39:47;19.20;;;12.95;;
32333;SDS011;18810;53.040;8.850;2023-04-15T00:42:13;19.85;;;13.25;;
32333;SDS011;18810;53.040;8.850;2023-04-15T00:44:39;19.73;;;13.20;;
32333;SDS011;18810;53.040;8.850;2023-04-15T00:47:05;18.33;;;12.38;;
32333;SDS011;18810;53.040;8.850;2023-04-15T00:49:31;16.98;;;11.63;;
32333;SDS011;18810;53.040;8.850;2023-04-15T00:51:57;16.13;;;11.50;;
32333;SDS011;18810;53.040;8.850;2023-04-15T00:54:22;16.23;;;11.75;;
32333;SDS011;18810;53.040;8.850;2023-04-15T00:56:48;18.10;;;12.35;;
32333;SDS011;18810;53.040;8.850;2023-04-15T00:59:14;18.60;;;12.25;;
32333;SDS011;18810;53.040;8.850;2023-04-15T01:01:41;20.77;;;13.30;;
32333;SDS011;18810;53.040;8.850;2023-04-15T01:04:09;17.95;;;12.93;;
32333;SDS011;18810;53.040;8.850;2023-04-15T01:06:36;19.55;;;12.23;;
32333;SDS011;18810;53.040;8.850;2023-04-15T01:09:01;18.92;;;12.63;;
32333;SDS011;18810;53.040;8.850;2023-04-15T01:11:27;17.08;;;11.85;;
32333;SDS011;18810;53.040;8.850;2023-04-15T01:13:54;18.42;;;12.27;;
32333;SDS011;18810;53.040;8.850;2023-04-15T01:16:22;21.52;;;13.35;;
32333;SDS011;18810;53.040;8.850;2023-04-15T01:18:48;18.10;;;11.75;;
32333;SDS011;18810;53.040;8.850;2023-04-15T01:21:14;17.65;;;13.20;;
32333;SDS011;18810;53.040;8.850;2023-04-15T01:23:40;19.10;;;12.02;;
32333;SDS011;18810;53.040;8.850;2023-04-15T01:26:06;20.02;;;12.52;;
32333;SDS011;18810;53.040;8.850;2023-04-15T01:28:33;21.92;;;14.18;;
32333;SDS011;18810;53.040;8.850;2023-04-15T01:33:37;21.52;;;13.40;;
32333;SDS011;18810;53.040;8.850;2023-04-15T01:36:04;19.92;;;13.23;;
32333;SDS011;18810;53.040;8.850;2023-04-15T01:38:31;21.70;;;13.57;;
32333;SDS011;18810;53.040;8.850;2023-04-15T01:40:57;22.83;;;14.38;;
32333;SDS011;18810;53.040;8.850;2023-04-15T01:43:23;23.33;;;14.63;;
32333;SDS011;18810;53.040;8.850;2023-04-15T01:45:50;21.67;;;13.77;;
32333;SDS011;18810;53.040;8.850;2023-04-15T01:48:16;22.38;;;14.63;;
32333;SDS011;18810;53.040;8.850;2023-04-15T01:50:42;22.63;;;14.48;;
32333;SDS011;18810;53.040;8.850;2023-04-15T01:53:08;21.98;;;14.73;;
32333;SDS011;18810;53.040;8.850;2023-04-15T01:55:34;21.90;;;14.60;;
32333;SDS011;18810;53.040;8.850;2023-04-15T01:57:59;22.10;;;14.98;;
32333;SDS011;18810;53.040;8.850;2023-04-15T02:00:25;21.95;;;15.02;;
32333;SDS011;18810;53.040;8.850;2023-04-15T02:02:51;20.45;;;14.15;;
32333;SDS011;18810;53.040;8.850;2023-04-15T02:05:17;22.45;;;14.27;;
32333;SDS011;18810;53.040;8.850;2023-04-15T02:07:42;20.33;;;14.30;;
32333;SDS011;18810;53.040;8.850;2023-04-15T02:10:09;22.75;;;14.48;;
32333;SDS011;18810;53.040;8.850;2023-04-15T02:12:37;24.20;;;15.68;;
32333;SDS011;18810;53.040;8.850;2023-04-15T02:15:03;20.17;;;14.15;;
32333;SDS011;18810;53.040;8.850;2023-04-15T02:17:29;22.48;;;14.50;;
32333;SDS011;18810;53.040;8.850;2023-04-15T02:19:59;23.05;;;15.23;;
32333;SDS011;18810;53.040;8.850;2023-04-15T02:22:24;22.73;;;15.05;;
32333;SDS011;18810;53.040;8.850;2023-04-15T02:24:50;21.80;;;13.90;;
32333;SDS011;18810;53.040;8.850;2023-04-15T02:27:16;24.10;;;15.15;;
32333;SDS011;18810;53.040;8.850;2023-04-15T02:29:45;21.10;;;13.93;;
32333;SDS011;18810;53.040;8.850;2023-04-15T02:32:11;24.25;;;13.30;;
32333;SDS011;18810;53.040;8.850;2023-04-15T02:34:38;21.23;;;13.50;;
32333;SDS011;18810;53.040;8.850;2023-04-15T02:37:10;20.80;;;13.90;;
32333;SDS011;18810;53.040;8.850;2023-04-15T02:39:37;21.85;;;14.52;;
32333;SDS011;18810;53.040;8.850;2023-04-15T02:42:03;22.95;;;14.48;;
32333;SDS011;18810;53.040;8.850;2023-04-15T02:44:30;21.63;;;14.65;;
32333;SDS011;18810;53.040;8.850;2023-04-15T02:46:56;20.67;;;12.85;;
32333;SDS011;18810;53.040;8.850;2023-04-15T02:49:23;20.65;;;13.93;;
32333;SDS011;18810;53.040;8.850;2023-04-15T02:51:49;19.92;;;13.18;;
32333;SDS011;18810;53.040;8.850;2023-04-15T02:54:16;19.85;;;13.00;;
32333;SDS011;18810;53.040;8.850;2023-04-15T02:56:42;20.25;;;13.13;;
32333;SDS011;18810;53.040;8.850;2023-04-15T02:59:08;18.95;;;12.80;;
32333;SDS011;18810;53.040;8.850;2023-04-15T03:01:33;20.65;;;12.85;;
32333;SDS011;18810;53.040;8.850;2023-04-15T03:03:59;20.60;;;13.10;;
32333;SDS011;18810;53.040;8.850;2023-04-15T03:06:25;20.42;;;13.00;;
32333;SDS011;18810;53.040;8.850;2023-04-15T03:08:51;20.23;;;13.27;;
32333;SDS011;18810;53.040;8.850;2023-04-15T03:11:18;19.05;;;12.43;;
32333;SDS011;18810;53.040;8.850;2023-04-15T03:13:44;18.58;;;12.77;;
32333;SDS011;18810;53.040;8.850;2023-04-15T03:16:09;20.55;;;12.98;;
32333;SDS011;18810;53.040;8.850;2023-04-15T03:18:35;21.77;;;13.30;;
32333;SDS011;18810;53.040;8.850;2023-04-15T03:21:01;22.73;;;15.00;;
32333;SDS011;18810;53.040;8.850;2023-04-15T03:23:29;23.38;;;15.48;;
32333;SDS011;18810;53.040;8.850;2023-04-15T03:25:56;22.17;;;14.35;;
32333;SDS011;18810;53.040;8.850;2023-04-15T03:28:23;26.55;;;17.50;;
32333;SDS011;18810;53.040;8.850;2023-04-15T03:30:48;26.48;;;16.50;;
32333;SDS011;18810;53.040;8.850;2023-04-15T03:33:14;25.05;;;16.38;;
32333;SDS011;18810;53.040;8.850;2023-04-15T03:35:40;23.63;;;15.82;;
32333;SDS011;18810;53.040;8.850;2023-04-15T03:38:06;25.55;;;16.30;;
32333;SDS011;18810;53.040;8.850;2023-04-15T03:40:32;27.25;;;17.48;;
32333;SDS011;18810;53.040;8.850;2023-04-15T03:42:58;30.58;;;18.45;;
32333;SDS011;18810;53.040;8.850;2023-04-15T03:45:24;26.15;;;16.98;;
32333;SDS011;18810;53.040;8.850;2023-04-15T03:47:50;26.38;;;16.60;;
32333;SDS011;18810;53.040;8.850;2023-04-15T03:50:15;25.27;;;16.15;;
32333;SDS011;18810;53.040;8.850;2023-04-15T03:52:41;22.25;;;15.35;;
32333;SDS011;18810;53.040;8.850;2023-04-15T03:55:08;27.27;;;16.42;;
32333;SDS011;18810;53.040;8.850;2023-04-15T03:57:34;25.05;;;16.23;;
32333;SDS011;18810;53.040;8.850;2023-04-15T04:00:03;22.95;;;15.30;;
32333;SDS011;18810;53.040;8.850;2023-04-15T04:02:30;24.92;;;16.25;;
32333;SDS011;18810;53.040;8.850;2023-04-15T04:04:55;21.80;;;14.45;;
32333;SDS011;18810;53.040;8.850;2023-04-15T04:07:21;22.13;;;14.57;;
32333;SDS011;18810;53.040;8.850;2023-04-15T04:09:48;25.10;;;15.18;;
32333;SDS011;18810;53.040;8.850;2023-04-15T04:12:14;25.10;;;15.02;;
32333;SDS011;18810;53.040;8.850;2023-04-15T04:14:40;24.30;;;15.98;;
32333;SDS011;18810;53.040;8.850;2023-04-15T04:17:06;23.85;;;15.40;;
32333;SDS011;18810;53.040;8.850;2023-04-15T04:19:32;27.50;;;16.27;;
32333;SDS011;18810;53.040;8.850;2023-04-15T04:21:58;22.92;;;15.25;;
32333;SDS011;18810;53.040;8.850;2023-04-15T04:24:23;26.35;;;15.82;;
32333;SDS011;18810;53.040;8.850;2023-04-15T04:26:49;25.63;;;16.33;;
32333;SDS011;18810;53.040;8.850;2023-04-15T04:29:15;25.58;;;15.88;;
32333;SDS011;18810;53.040;8.850;2023-04-15T04:31:41;28.83;;;17.23;;
32333;SDS011;18810;53.040;8.850;2023-04-15T04:34:06;26.40;;;17.85;;
32333;SDS011;18810;53.040;8.850;2023-04-15T04:36:32;30.02;;;17.67;;
32333;SDS011;18810;53.040;8.850;2023-04-15T04:38:58;30.05;;;19.05;;
32333;SDS011;18810;53.040;8.850;2023-04-15T04:41:23;34.22;;;19.20;;
32333;SDS011;18810;53.040;8.850;2023-04-15T04:43:49;34.70;;;18.98;;
32333;SDS011;18810;53.040;8.850;2023-04-15T04:46:15;32.55;;;20.20;;
32333;SDS011;18810;53.040;8.850;2023-04-15T04:48:41;35.88;;;21.05;;
32333;SDS011;18810;53.040;8.850;2023-04-15T04:51:06;36.05;;;21.00;;
32333;SDS011;18810;53.040;8.850;2023-04-15T04:53:33;36.78;;;21.50;;
32333;SDS011;18810;53.040;8.850;2023-04-15T04:56:01;37.70;;;21.98;;
32333;SDS011;18810;53.040;8.850;2023-04-15T04:58:27;39.78;;;21.98;;
32333;SDS011;18810;53.040;8.850;2023-04-15T05:00:53;36.42;;;22.35;;
32333;SDS011;18810;53.040;8.850;2023-04-15T05:03:19;37.55;;;22.48;;
32333;SDS011;18810;53.040;8.850;2023-04-15T05:05:45;38.63;;;22.75;;
32333;SDS011;18810;53.040;8.850;2023-04-15T05:08:13;41.13;;;22.48;;
32333;SDS011;18810;53.040;8.850;2023-04-15T05:10:39;39.78;;;23.15;;
32333;SDS011;18810;53.040;8.850;2023-04-15T05:13:05;39.15;;;22.17;;
32333;SDS011;18810;53.040;8.850;2023-04-15T05:15:31;37.67;;;23.40;;
32333;SDS011;18810;53.040;8.850;2023-04-15T05:17:57;38.17;;;22.33;;
32333;SDS011;18810;53.040;8.850;2023-04-15T05:20:23;38.95;;;23.17;;
32333;SDS011;18810;53.040;8.850;2023-04-15T05:22:48;37.97;;;23.55;;
32333;SDS011;18810;53.040;8.850;2023-04-15T05:25:14;40.17;;;22.67;;
32333;SDS011;18810;53.040;8.850;2023-04-15T05:27:40;36.85;;;23.88;;
32333;SDS011;18810;53.040;8.850;2023-04-15T05:30:06;38.95;;;22.60;;
32333;SDS011;18810;53.040;8.850;2023-04-15T05:32:32;39.70;;;24.05;;
32333;SDS011;18810;53.040;8.850;2023-04-15T05:34:58;43.78;;;25.05;;
32333;SDS011;18810;53.040;8.850;2023-04-15T05:37:24;45.63;;;25.35;;
32333;SDS011;18810;53.040;8.850;2023-04-15T05:39:50;41.40;;;24.52;;
32333;SDS011;18810;53.040;8.850;2023-04-15T05:42:16;40.15;;;23.10;;
32333;SDS011;18810;53.040;8.850;2023-04-15T05:44:41;41.72;;;23.45;;
32333;SDS011;18810;53.040;8.850;2023-04-15T05:47:07;41.88;;;24.60;;
32333;SDS011;18810;53.040;8.850;2023-04-15T05:49:34;45.13;;;25.58;;
32333;SDS011;18810;53.040;8.850;2023-04-15T05:52:00;47.15;;;25.30;;
32333;SDS011;18810;53.040;8.850;2023-04-15T05:54:26;42.90;;;24.92;;
32333;SDS011;18810;53.040;8.850;2023-04-15T05:56:52;40.78;;;24.60;;
32333;SDS011;18810;53.040;8.850;2023-04-15T05:59:18;41.13;;;23.65;;
32333;SDS011;18810;53.040;8.850;2023-04-15T06:01:44;44.70;;;25.02;;
32333;SDS011;18810;53.040;8.850;2023-04-15T06:04:10;45.90;;;25.85;;
32333;SDS011;18810;53.040;8.850;2023-04-15T06:06:36;42.88;;;24.20;;
32333;SDS011;18810;53.040;8.850;2023-04-15T06:09:02;43.90;;;25.65;;
32333;SDS011;18810;53.040;8.850;2023-04-15T06:11:28;44.47;;;25.25;;
32333;SDS011;18810;53.040;8.850;2023-04-15T06:13:54;44.92;;;24.48;;
32333;SDS011;18810;53.040;8.850;2023-04-15T06:16:20;43.30;;;24.90;;
32333;SDS011;18810;53.040;8.850;2023-04-15T06:18:47;43.10;;;25.10;;
32333;SDS011;18810;53.040;8.850;2023-04-15T06:21:13;43.22;;;24.80;;
32333;SDS011;18810;53.040;8.850;2023-04-15T06:23:39;47.42;;;25.67;;
32333;SDS011;18810;53.040;8.850;2023-04-15T06:26:06;46.20;;;24.60;;
32333;SDS011;18810;53.040;8.850;2023-04-15T06:28:32;44.70;;;24.67;;
32333;SDS011;18810;53.040;8.850;2023-04-15T06:30:58;42.60;;;24.30;;
32333;SDS011;18810;53.040;8.850;2023-04-15T06:33:25;42.55;;;25.08;;
32333;SDS011;18810;53.040;8.850;2023-04-15T06:35:51;46.28;;;25.83;;
32333;SDS011;18810;53.040;8.850;2023-04-15T06:38:16;44.53;;;24.27;;
32333;SDS011;18810;53.040;8.850;2023-04-15T06:40:42;43.17;;;23.05;;
32333;SDS011;18810;53.040;8.850;2023-04-15T06:43:08;46.50;;;25.58;;
32333;SDS011;18810;53.040;8.850;2023-04-15T06:45:34;45.28;;;25.05;;
32333;SDS011;18810;53.040;8.850;2023-04-15T06:48:00;42.65;;;24.33;;
32333;SDS011;18810;53.040;8.850;2023-04-15T06:50:25;48.38;;;25.88;;
32333;SDS011;18810;53.040;8.850;2023-04-15T06:52:52;42.25;;;24.02;;
32333;SDS011;18810;53.040;8.850;2023-04-15T06:55:18;42.97;;;24.98;;
32333;SDS011;18810;53.040;8.850;2023-04-15T06:57:44;43.45;;;25.05;;
32333;SDS011;18810;53.040;8.850;2023-04-15T07:00:10;41.25;;;23.85;;
32333;SDS011;18810;53.040;8.850;2023-04-15T07:02:36;46.22;;;24.85;;
32333;SDS011;18810;53.040;8.850;2023-04-15T07:05:02;41.28;;;24.60;;
32333;SDS011;18810;53.040;8.850;2023-04-15T07:07:30;46.63;;;23.75;;
32333;SDS011;18810;53.040;8.850;2023-04-15T07:09:55;43.72;;;25.10;;
32333;SDS011;18810;53.040;8.850;2023-04-15T07:12:21;42.33;;;24.02;;
32333;SDS011;18810;53.040;8.850;2023-04-15T07:14:47;44.75;;;24.38;;
32333;SDS011;18810;53.040;8.850;2023-04-15T07:17:13;40.50;;;23.25;;
32333;SDS011;18810;53.040;8.850;2023-04-15T07:19:39;39.03;;;22.80;;
32333;SDS011;18810;53.040;8.850;2023-04-15T07:22:05;44.55;;;24.40;;
32333;SDS011;18810;53.040;8.850;2023-04-15T07:24:31;43.42;;;23.83;;
32333;SDS011;18810;53.040;8.850;2023-04-15T07:26:57;40.85;;;23.25;;
32333;SDS011;18810;53.040;8.850;2023-04-15T07:29:23;39.80;;;22.63;;
32333;SDS011;18810;53.040;8.850;2023-04-15T07:31:49;38.20;;;22.52;;
32333;SDS011;18810;53.040;8.850;2023-04-15T07:34:15;40.67;;;23.55;;
32333;SDS011;18810;53.040;8.850;2023-04-15T07:36:41;35.90;;;21.83;;
32333;SDS011;18810;53.040;8.850;2023-04-15T07:39:07;37.55;;;21.88;;
32333;SDS011;18810;53.040;8.850;2023-04-15T07:41:33;34.97;;;21.10;;
32333;SDS011;18810;53.040;8.850;2023-04-15T07:43:59;36.63;;;22.92;;
32333;SDS011;18810;53.040;8.850;2023-04-15T07:46:24;37.28;;;22.58;;
32333;SDS011;18810;53.040;8.850;2023-04-15T07:48:51;37.50;;;22.65;;
32333;SDS011;18810;53.040;8.850;2023-04-15T07:51:18;41.33;;;23.67;;
32333;SDS011;18810;53.040;8.850;2023-04-15T07:53:45;37.50;;;22.65;;
32333;SDS011;18810;53.040;8.850;2023-04-15T07:56:12;35.00;;;21.75;;
32333;SDS011;18810;53.040;8.850;2023-04-15T07:58:38;36.38;;;22.60;;
32333;SDS011;18810;53.040;8.850;2023-04-15T08:01:04;39.85;;;23.02;;
32333;SDS011;18810;53.040;8.850;2023-04-15T08:03:30;34.67;;;21.60;;
32333;SDS011;18810;53.040;8.850;2023-04-15T08:05:56;34.08;;;21.70;;
32333;SDS011;18810;53.040;8.850;2023-04-15T08:08:22;33.65;;;20.60;;
32333;SDS011;18810;53.040;8.850;2023-04-15T08:10:48;33.15;;;21.42;;
32333;SDS011;18810;53.040;8.850;2023-04-15T08:13:14;29.48;;;19.90;;
32333;SDS011;18810;53.040;8.850;2023-04-15T08:15:41;29.83;;;20.70;;
32333;SDS011;18810;53.040;8.850;2023-04-15T08:18:07;29.67;;;19.65;;
32333;SDS011;18810;53.040;8.850;2023-04-15T08:20:33;29.15;;;19.92;;
32333;SDS011;18810;53.040;8.850;2023-04-15T08:22:58;27.42;;;19.15;;
32333;SDS011;18810;53.040;8.850;2023-04-15T08:25:24;26.02;;;18.13;;
32333;SDS011;18810;53.040;8.850;2023-04-15T08:27:51;26.02;;;18.42;;
32333;SDS011;18810;53.040;8.850;2023-04-15T08:30:19;26.00;;;18.60;;
32333;SDS011;18810;53.040;8.850;2023-04-15T08:32:45;25.58;;;17.80;;
32333;SDS011;18810;53.040;8.850;2023-04-15T08:35:12;26.30;;;18.33;;
32333;SDS011;18810;53.040;8.850;2023-04-15T08:37:38;27.20;;;18.15;;
32333;SDS011;18810;53.040;8.850;2023-04-15T08:40:03;26.52;;;17.75;;
32333;SDS011;18810;53.040;8.850;2023-04-15T08:42:30;29.02;;;17.60;;
32333;SDS011;18810;53.040;8.850;2023-04-15T08:47:29;23.83;;;17.25;;
32333;SDS011;18810;53.040;8.850;2023-04-15T08:49:57;24.77;;;17.08;;
32333;SDS011;18810;53.040;8.850;2023-04-15T08:52:24;25.00;;;17.60;;
32333;SDS011;18810;53.040;8.850;2023-04-15T08:54:51;23.17;;;16.83;;
32333;SDS011;18810;53.040;8.850;2023-04-15T08:59:50;24.90;;;16.63;;
32333;SDS011;18810;53.040;8.850;2023-04-15T09:02:17;24.83;;;17.45;;
32333;SDS011;18810;53.040;8.850;2023-04-15T09:04:43;27.63;;;17.73;;
32333;SDS011;18810;53.040;8.850;2023-04-15T09:07:09;27.42;;;17.77;;
32333;SDS011;18810;53.040;8.850;2023-04-15T09:09:35;26.70;;;18.58;;
32333;SDS011;18810;53.040;8.850;2023-04-15T09:12:04;25.45;;;16.80;;
32333;SDS011;18810;53.040;8.850;2023-04-15T09:14:29;25.33;;;17.23;;
32333;SDS011;18810;53.040;8.850;2023-04-15T09:17:00;25.30;;;17.17;;
32333;SDS011;18810;53.040;8.850;2023-04-15T09:19:27;23.08;;;16.52;;
32333;SDS011;18810;53.040;8.850;2023-04-15T09:21:56;24.42;;;16.38;;
32333;SDS011;18810;53.040;8.850;2023-04-15T09:24:23;23.60;;;16.95;;
32333;SDS011;18810;53.040;8.850;2023-04-15T09:26:51;23.70;;;16.70;;
32333;SDS011;18810;53.040;8.850;2023-04-15T09:29:21;22.00;;;15.45;;
32333;SDS011;18810;53.040;8.850;2023-04-15T09:31:49;23.08;;;15.60;;
32333;SDS011;18810;53.040;8.850;2023-04-15T09:34:15;24.10;;;15.52;;
32333;SDS011;18810;53.040;8.850;2023-04-15T09:39:10;21.58;;;16.13;;
32333;SDS011;18810;53.040;8.850;2023-04-15T09:41:36;22.85;;;16.00;;
32333;SDS011;18810;53.040;8.850;2023-04-15T09:44:02;21.27;;;15.35;;
32333;SDS011;18810;53.040;8.850;2023-04-15T09:46:44;24.27;;;15.80;;
32333;SDS011;18810;53.040;8.850;2023-04-15T09:49:10;23.88;;;15.70;;
32333;SDS011;18810;53.040;8.850;2023-04-15T09:51:37;21.95;;;15.40;;
32333;SDS011;18810;53.040;8.850;2023-04-15T09:54:05;21.08;;;14.88;;
32333;SDS011;18810;53.040;8.850;2023-04-15T09:56:40;22.63;;;15.32;;
32333;SDS011;18810;53.040;8.850;2023-04-15T09:59:09;20.65;;;14.88;;
32333;SDS011;18810;53.040;8.850;2023-04-15T10:01:35;21.95;;;15.18;;
32333;SDS011;18810;53.040;8.850;2023-04-15T10:04:02;21.80;;;14.88;;
32333;SDS011;18810;53.040;8.850;2023-04-15T10:06:29;22.17;;;15.98;;
32333;SDS011;18810;53.040;8.850;2023-04-15T10:08:56;22.13;;;15.80;;
32333;SDS011;18810;53.040;8.850;2023-04-15T10:11:23;22.55;;;14.82;;
32333;SDS011;18810;53.040;8.850;2023-04-15T10:13:50;21.40;;;15.57;;
32333;SDS011;18810;53.040;8.850;2023-04-15T10:16:18;22.27;;;15.20;;
32333;SDS011;18810;53.040;8.850;2023-04-15T10:18:47;22.38;;;16.10;;
32333;SDS011;18810;53.040;8.850;2023-04-15T10:21:18;25.42;;;15.45;;
32333;SDS011;18810;53.040;8.850;2023-04-15T10:23:46;24.30;;;16.55;;
32333;SDS011;18810;53.040;8.850;2023-04-15T10:26:12;23.67;;;16.40;;
32333;SDS011;18810;53.040;8.850;2023-04-15T10:28:48;23.15;;;16.33;;
32333;SDS011;18810;53.040;8.850;2023-04-15T10:31:15;26.15;;;17.58;;
32333;SDS011;18810;53.040;8.850;2023-04-15T10:33:42;28.17;;;18.73;;
32333;SDS011;18810;53.040;8.850;2023-04-15T10:36:08;29.35;;;19.02;;
32333;SDS011;18810;53.040;8.850;2023-04-15T10:43:38;28.23;;;18.92;;
32333;SDS011;18810;53.040;8.850;2023-04-15T10:46:05;28.05;;;18.88;;
32333;SDS011;18810;53.040;8.850;2023-04-15T10:48:30;30.17;;;19.25;;
32333;SDS011;18810;53.040;8.850;2023-04-15T10:50:57;28.98;;;18.85;;
32333;SDS011;18810;53.040;8.850;2023-04-15T10:53:27;29.50;;;19.35;;
32333;SDS011;18810;53.040;8.850;2023-04-15T10:55:53;29.10;;;19.83;;
32333;SDS011;18810;53.040;8.850;2023-04-15T10:58:22;30.83;;;20.48;;
32333;SDS011;18810;53.040;8.850;2023-04-15T11:00:49;31.45;;;21.42;;
32333;SDS011;18810;53.040;8.850;2023-04-15T11:03:37;30.33;;;19.63;;
32333;SDS011;18810;53.040;8.850;2023-04-15T11:06:06;30.85;;;19.20;;
32333;SDS011;18810;53.040;8.850;2023-04-15T11:11:21;30.88;;;19.85;;
32333;SDS011;18810;53.040;8.850;2023-04-15T11:13:50;28.38;;;18.42;;
32333;SDS011;18810;53.040;8.850;2023-04-15T11:16:16;32.83;;;20.05;;
32333;SDS011;18810;53.040;8.850;2023-04-15T11:18:42;29.55;;;18.83;;
32333;SDS011;18810;53.040;8.850;2023-04-15T11:21:18;31.52;;;19.15;;
32333;SDS011;18810;53.040;8.850;2023-04-15T11:23:48;34.53;;;20.40;;
32333;SDS011;18810;53.040;8.850;2023-04-15T11:26:15;30.33;;;19.38;;
32333;SDS011;18810;53.040;8.850;2023-04-15T11:28:41;30.38;;;20.08;;
32333;SDS011;18810;53.040;8.850;2023-04-15T11:31:15;31.42;;;20.45;;
32333;SDS011;18810;53.040;8.850;2023-04-15T11:33:46;32.67;;;19.98;;
32333;SDS011;18810;53.040;8.850;2023-04-15T11:38:51;40.35;;;22.73;;
32333;SDS011;18810;53.040;8.850;2023-04-15T11:41:23;37.55;;;23.10;;
32333;SDS011;18810;53.040;8.850;2023-04-15T11:43:49;37.72;;;23.08;;
32333;SDS011;18810;53.040;8.850;2023-04-15T11:46:16;41.78;;;23.50;;
32333;SDS011;18810;53.040;8.850;2023-04-15T11:48:42;48.78;;;26.55;;
32333;SDS011;18810;53.040;8.850;2023-04-15T11:51:10;42.85;;;24.40;;
32333;SDS011;18810;53.040;8.850;2023-04-15T11:53:41;49.72;;;25.73;;
32333;SDS011;18810;53.040;8.850;2023-04-15T11:56:20;46.33;;;25.67;;
32333;SDS011;18810;53.040;8.850;2023-04-15T11:58:53;47.33;;;26.35;;
32333;SDS011;18810;53.040;8.850;2023-04-15T12:03:55;42.58;;;23.60;;
32333;SDS011;18810;53.040;8.850;2023-04-15T12:06:21;52.72;;;26.90;;
32333;SDS011;18810;53.040;8.850;2023-04-15T12:08:49;48.47;;;27.42;;
32333;SDS011;18810;53.040;8.850;2023-04-15T12:16:39;49.25;;;30.08;;
32333;SDS011;18810;53.040;8.850;2023-04-15T12:19:06;51.35;;;29.83;;
32333;SDS011;18810;53.040;8.850;2023-04-15T12:21:36;53.47;;;30.67;;
32333;SDS011;18810;53.040;8.850;2023-04-15T12:24:03;64.00;;;33.45;;
32333;SDS011;18810;53.040;8.850;2023-04-15T12:26:42;62.97;;;32.80;;
32333;SDS011;18810;53.040;8.850;2023-04-15T12:29:16;66.78;;;33.40;;
32333;SDS011;18810;53.040;8.850;2023-04-15T12:34:18;63.45;;;32.63;;
32333;SDS011;18810;53.040;8.850;2023-04-15T12:36:54;66.90;;;34.05;;
32333;SDS011;18810;53.040;8.850;2023-04-15T12:39:21;68.93;;;35.03;;
32333;SDS011;18810;53.040;8.850;2023-04-15T12:41:48;59.53;;;33.25;;
32333;SDS011;18810;53.040;8.850;2023-04-15T12:44:13;70.93;;;34.80;;
32333;SDS011;18810;53.040;8.850;2023-04-15T12:46:39;61.88;;;33.80;;
32333;SDS011;18810;53.040;8.850;2023-04-15T12:49:05;63.47;;;34.78;;
32333;SDS011;18810;53.040;8.850;2023-04-15T12:51:31;60.17;;;34.35;;
32333;SDS011;18810;53.040;8.850;2023-04-15T12:53:56;69.90;;;35.60;;
32333;SDS011;18810;53.040;8.850;2023-04-15T12:56:22;68.57;;;35.42;;
32333;SDS011;18810;53.040;8.850;2023-04-15T12:58:48;69.20;;;35.70;;
32333;SDS011;18810;53.040;8.850;2023-04-15T13:01:14;70.65;;;35.30;;
32333;SDS011;18810;53.040;8.850;2023-04-15T13:03:40;62.97;;;34.80;;
32333;SDS011;18810;53.040;8.850;2023-04-15T13:06:05;70.57;;;34.40;;
32333;SDS011;18810;53.040;8.850;2023-04-15T13:08:32;66.45;;;35.72;;
32333;SDS011;18810;53.040;8.850;2023-04-15T13:10:58;69.63;;;36.80;;
32333;SDS011;18810;53.040;8.850;2023-04-15T13:13:23;62.40;;;34.78;;
32333;SDS011;18810;53.040;8.850;2023-04-15T13:15:49;62.17;;;34.95;;
32333;SDS011;18810;53.040;8.850;2023-04-15T13:18:15;70.88;;;36.97;;
32333;SDS011;18810;53.040;8.850;2023-04-15T13:20:41;66.03;;;35.92;;
32333;SDS011;18810;53.040;8.850;2023-04-15T13:23:06;64.38;;;35.75;;
32333;SDS011;18810;53.040;8.850;2023-04-15T13:25:32;68.30;;;35.40;;
32333;SDS011;18810;53.040;8.850;2023-04-15T13:27:58;68.45;;;37.20;;
32333;SDS011;18810;53.040;8.850;2023-04-15T13:30:25;66.32;;;36.40;;
32333;SDS011;18810;53.040;8.850;2023-04-15T13:32:51;58.35;;;34.00;;
32333;SDS011;18810;53.040;8.850;2023-04-15T13:35:18;60.25;;;33.92;;
32333;SDS011;18810;53.040;8.850;2023-04-15T13:37:44;60.17;;;34.35;;
32333;SDS011;18810;53.040;8.850;2023-04-15T13:40:11;53.28;;;31.85;;
32333;SDS011;18810;53.040;8.850;2023-04-15T13:42:36;53.72;;;31.85;;
32333;SDS011;18810;53.040;8.850;2023-04-15T13:45:02;49.83;;;29.50;;
32333;SDS011;18810;53.040;8.850;2023-04-15T13:47:28;46.95;;;29.45;;
32333;SDS011;18810;53.040;8.850;2023-04-15T13:49:54;45.15;;;29.80;;
32333;SDS011;18810;53.040;8.850;2023-04-15T13:52:21;47.20;;;30.77;;
32333;SDS011;18810;53.040;8.850;2023-04-15T13:54:47;51.05;;;31.67;;
32333;SDS011;18810;53.040;8.850;2023-04-15T13:57:13;46.28;;;30.63;;
32333;SDS011;18810;53.040;8.850;2023-04-15T13:59:38;47.03;;;30.27;;
32333;SDS011;18810;53.040;8.850;2023-04-15T14:02:04;48.17;;;31.67;;
32333;SDS011;18810;53.040;8.850;2023-04-15T14:04:30;49.45;;;32.25;;
32333;SDS011;18810;53.040;8.850;2023-04-15T14:06:57;54.28;;;33.80;;
32333;SDS011;18810;53.040;8.850;2023-04-15T14:09:23;53.50;;;34.03;;
32333;SDS011;18810;53.040;8.850;2023-04-15T14:11:49;54.63;;;33.63;;
32333;SDS011;18810;53.040;8.850;2023-04-15T14:14:15;52.03;;;33.45;;
32333;SDS011;18810;53.040;8.850;2023-04-15T14:16:41;51.47;;;32.30;;
32333;SDS011;18810;53.040;8.850;2023-04-15T14:19:06;47.42;;;31.90;;
32333;SDS011;18810;53.040;8.850;2023-04-15T14:21:32;46.47;;;31.38;;
32333;SDS011;18810;53.040;8.850;2023-04-15T14:23:57;47.58;;;32.45;;
32333;SDS011;18810;53.040;8.850;2023-04-15T14:26:23;46.03;;;32.13;;
32333;SDS011;18810;53.040;8.850;2023-04-15T14:28:49;45.85;;;30.77;;
32333;SDS011;18810;53.040;8.850;2023-04-15T14:31:15;49.47;;;31.30;;
32333;SDS011;18810;53.040;8.850;2023-04-15T14:33:41;44.90;;;30.73;;
32333;SDS011;18810;53.040;8.850;2023-04-15T14:36:07;44.53;;;31.38;;
32333;SDS011;18810;53.040;8.850;2023-04-15T14:38:33;46.08;;;32.25;;
32333;SDS011;18810;53.040;8.850;2023-04-15T14:41:03;47.35;;;32.13;;
32333;SDS011;18810;53.040;8.850;2023-04-15T14:43:30;47.85;;;32.13;;
32333;SDS011;18810;53.040;8.850;2023-04-15T14:45:56;49.72;;;32.85;;
32333;SDS011;18810;53.040;8.850;2023-04-15T14:48:21;45.47;;;31.95;;